Wildersville, TN

11:57 PM CDT on May 25, 2015 (GMT -0500)
School House Road | | Change Station
CLOSE
Current Station
Personal Weather Station
Location: Yuma, TN
Elevation: 492 ft
Nearby Weather Stations

Elev 492 ft 35.85 °N, 88.34 °W | Updated 10 seconds ago

Partly Cloudy
Partly Cloudy
69.1 °F
Feels Like 69.1 °F
N
3.5
Wind Variable Wind from South
Gusts 4.6 mph

Today
High -- | Low -- °F
--% Chance of Precip.
Yesterday
High -- | Low -- °F
Precip. -- in
5:41 AM 7:59 PM
First Quarter, 55% visible
Pressure 30.04 in
Visibility 10.0 miles
Clouds Scattered Clouds 1400 ft
Dew Point 66 °F
Humidity 91%
Rainfall 0.99 in
Snow Depth Not available.
UV 0 out of 12
Pollen .70 out of 12
Air Quality Not available.
Flu Activity Sporadic
SPECI KMKL 260431Z AUTO 17007KT 10SM SCT014 22/19 A3004 RMK AO2 T02220194

More Conditions Fewer Conditions

Pressure 30.04 in
Visibility 10.0 miles
Clouds Scattered Clouds 1400 ft
Dew Point 66 °F
Humidity 91%
Rainfall 0.99 in
Snow Depth Not available.
UV 0 out of 12
Pollen .70 out of 12
Air Quality Not available.
Flu Activity Sporadic
SPECI KMKL 260431Z AUTO 17007KT 10SM SCT014 22/19 A3004 RMK AO2 T02220194

More Conditions Fewer Conditions

10-Day Weather Forecast

Almanac

Astronomy

May. 25, 2015 Rise Set
Actual Time
Civil Twilight
Nautical Twilight
Astronomical Twilight
Moon
Length of Visible Light
Length of Day
Tomorrow will be .
, % of the Moon is Illuminated

Today's Extremes

State Highs State Lows

Community

WunderPhotos

Upload Photos

1,824,280 photos uploaded!

WunderBlogs® & News

Nearby

Air Quality

  Air Quality AQ Index Pollutant
Not available.

Snow Depth

Station Depth Elevation

Earthquake Activity

City Distance Mag. Time & Date
Minimum magnitude displayed is 2.5.

Coastal Water Temperatures

Place Temperature

Stations

Nearby Weather Stations

Station Location Temp. Windchill Dew Point Humidity Wind Precip. Elev Updated Type